Time;durP1;ratioP1;P1;durP2;ratioP2;P2;SDS_P1;SDS_P2;PMS_P1;PMS_P2;Temp;Humidity;BMP_temperature;BMP_pressure;BME280_temperature;BME280_humidity;BME280_pressure;Samples;Min_cycle;Max_cycle;Signal;HPM_P1;HPM_P2
2022/03/30 00:00:29;;;;;;;8.88;2.92;;;;;;;1.61;85.73;100878.03;2079587;28;45210;-67
2022/03/30 00:01:31;;;;;;;8.40;3.17;;;;;;;1.57;85.31;100873.59;2079810;28;44894;-68
2022/03/30 00:02:33;;;;;;;11.48;3.33;;;;;;;1.52;85.85;100871.75;2079492;28;44273;-67
2022/03/30 00:03:34;;;;;;;10.98;3.03;;;;;;;1.52;85.04;100873.53;2070994;28;45511;-68
2022/03/30 00:04:38;;;;;;;9.63;3.60;;;;;;;1.48;85.48;100869.97;2063445;28;44828;-67
2022/03/30 00:05:40;;;;;;;8.55;3.00;;;;;;;1.47;85.80;100870.84;2063861;28;40226;-67
2022/03/30 00:06:44;;;;;;;10.73;3.63;;;;;;;1.46;85.97;100869.06;2071671;28;44067;-67
2022/03/30 00:07:54;;;;;;;9.25;3.85;;;;;;;1.48;87.06;100862.06;2079961;28;44630;-67
2022/03/30 00:08:56;;;;;;;11.38;3.83;;;;;;;1.48;86.46;100867.31;2079697;28;45833;-67
2022/03/30 00:09:59;;;;;;;8.88;3.08;;;;;;;1.47;86.46;100865.56;2078838;28;44334;-67
2022/03/30 00:11:00;;;;;;;12.18;3.83;;;;;;;1.45;86.26;100866.41;2079850;28;45647;-68
2022/03/30 00:12:02;;;;;;;8.23;3.65;;;;;;;1.41;86.19;100864.59;2079613;28;45129;-67
2022/03/30 00:13:04;;;;;;;10.95;4.22;;;;;;;1.39;86.40;100856.66;2080150;28;28804;-68
2022/03/30 00:14:09;;;;;;;11.55;3.78;;;;;;;1.37;86.59;100858.41;2071029;28;45836;-69
2022/03/30 00:15:11;;;;;;;7.13;2.78;;;;;;;1.34;86.47;100856.59;2071846;28;45633;-68
2022/03/30 00:16:12;;;;;;;11.50;3.45;;;;;;;1.34;86.45;100858.34;2080196;28;43772;-69
2022/03/30 00:17:14;;;;;;;12.73;3.92;;;;;;;1.38;87.46;100859.28;2080385;28;44553;-69
2022/03/30 00:18:16;;;;;;;12.10;5.15;;;;;;;1.43;87.98;100852.31;2079509;28;42040;-69
2022/03/30 00:19:21;;;;;;;14.82;6.00;;;;;;;1.46;87.81;100852.34;2080077;28;45458;-69
2022/03/30 00:20:22;;;;;;;14.70;6.22;;;;;;;1.46;87.63;100850.59;2080098;28;25141;-69
2022/03/30 00:21:24;;;;;;;15.88;6.18;;;;;;;1.46;87.95;100849.72;2079459;28;45274;-68
2022/03/30 00:22:26;;;;;;;11.70;5.47;;;;;;;1.46;87.08;100852.34;2079016;28;46317;-68
2022/03/30 00:23:28;;;;;;;13.65;5.85;;;;;;;1.46;87.02;100861.16;2080052;28;42865;-68
2022/03/30 00:24:30;;;;;;;13.50;6.18;;;;;;;1.47;86.82;100860.28;2079231;28;45352;-68
2022/03/30 00:25:32;;;;;;;10.95;5.35;;;;;;;1.48;87.51;100855.91;2080087;28;30738;-67
2022/03/30 00:26:36;;;;;;;12.02;5.13;;;;;;;1.47;87.00;100855.03;2079261;28;43888;-67
2022/03/30 00:27:43;;;;;;;9.88;4.90;;;;;;;1.48;87.33;100850.63;2080751;28;20041;-66
2022/03/30 00:28:45;;;;;;;13.80;5.13;;;;;;;1.47;87.18;100849.75;2072350;28;20086;-68
2022/03/30 00:29:47;;;;;;;12.68;5.22;;;;;;;1.48;87.31;100846.22;2071306;28;43233;-68
2022/03/30 00:30:49;;;;;;;15.20;5.50;;;;;;;1.50;87.61;100849.75;2078751;28;45641;-67
2022/03/30 00:31:51;;;;;;;11.73;5.13;;;;;;;1.51;87.36;100856.81;2079402;28;26112;-67
2022/03/30 00:32:52;;;;;;;13.63;5.43;;;;;;;1.52;87.31;100853.28;2079472;28;44113;-68
2022/03/30 00:33:54;;;;;;;14.45;5.47;;;;;;;1.51;87.21;100846.28;2080180;28;43467;-67
2022/03/30 00:34:56;;;;;;;15.40;5.72;;;;;;;1.53;87.40;100854.22;2080260;28;27599;-68
2022/03/30 00:35:57;;;;;;;12.38;5.20;;;;;;;1.51;86.63;100848.91;2079842;28;44781;-67
2022/03/30 00:36:59;;;;;;;10.65;4.63;;;;;;;1.55;87.47;100851.59;2080259;28;33213;-68
2022/03/30 00:38:04;;;;;;;11.00;3.85;;;;;;;1.56;86.99;100853.34;2079148;28;45467;-68
2022/03/30 00:39:05;;;;;;;15.68;4.57;;;;;;;1.59;87.56;100853.38;2079973;28;44831;-68
2022/03/30 00:40:14;;;;;;;14.45;5.35;;;;;;;1.61;87.76;100847.25;2079939;28;44395;-68
2022/03/30 00:41:16;;;;;;;14.65;4.75;;;;;;;1.65;87.61;100849.09;2079707;28;45157;-68
2022/03/30 00:42:21;;;;;;;13.70;5.00;;;;;;;1.71;87.79;100845.63;2079811;28;20066;-67
2022/03/30 00:43:23;;;;;;;10.80;4.72;;;;;;;1.74;87.73;100847.41;2079365;28;43853;-68
2022/03/30 00:44:28;;;;;;;9.48;4.40;;;;;;;1.80;88.00;100844.84;2080904;28;45655;-67
2022/03/30 00:45:30;;;;;;;14.23;5.05;;;;;;;1.83;87.77;100845.78;2078374;28;40906;-70
2022/03/30 00:46:31;;;;;;;11.57;4.68;;;;;;;1.86;87.85;100837.88;2079213;28;45242;-67
2022/03/30 00:47:33;;;;;;;12.55;5.03;;;;;;;1.89;87.44;100843.19;2079708;28;44912;-67
2022/03/30 00:48:35;;;;;;;10.60;4.18;;;;;;;1.90;87.46;100841.41;2078972;28;45684;-67
2022/03/30 00:49:36;;;;;;;9.98;3.97;;;;;;;1.89;87.47;100835.25;2078545;28;46261;-69
2022/03/30 00:50:39;;;;;;;12.10;4.15;;;;;;;1.88;86.87;100838.78;2080801;28;27497;-67
2022/03/30 00:51:41;;;;;;;9.50;3.53;;;;;;;1.89;86.95;100840.53;2078641;28;43893;-67
2022/03/30 00:52:45;;;;;;;10.68;3.40;;;;;;;1.90;87.14;100833.50;2079187;28;45861;-69
2022/03/30 00:53:46;;;;;;;10.55;4.15;;;;;;;1.90;86.58;100841.41;2079819;28;39096;-67
2022/03/30 00:54:51;;;;;;;11.90;4.03;;;;;;;1.92;87.30;100831.78;2079706;28;44958;-67
2022/03/30 00:55:53;;;;;;;8.82;3.63;;;;;;;1.94;86.54;100840.59;2070227;28;44044;-66
2022/03/30 00:56:55;;;;;;;10.52;4.03;;;;;;;1.97;87.39;100834.47;2071281;28;44267;-67
2022/03/30 00:57:57;;;;;;;9.65;3.80;;;;;;;1.99;87.33;100833.63;2079321;28;43362;-66
2022/03/30 00:59:05;;;;;;;9.43;3.85;;;;;;;2.01;87.55;100841.53;2070917;28;42653;-67
2022/03/30 01:00:11;;;;;;;12.82;4.70;;;;;;;2.02;86.94;100835.41;2071566;28;46331;-67
2022/03/30 01:01:14;;;;;;;9.45;4.32;;;;;;;2.03;86.91;100823.97;2079665;28;34828;-68
2022/03/30 01:02:17;;;;;;;11.20;3.80;;;;;;;2.07;87.31;100825.78;2070477;28;45800;-67
2022/03/30 01:03:19;;;;;;;9.10;3.35;;;;;;;2.06;86.74;100829.28;2071730;28;44820;-67
2022/03/30 01:04:21;;;;;;;8.70;3.75;;;;;;;2.07;87.00;100825.78;2071086;28;35291;-67
2022/03/30 01:05:24;;;;;;;8.60;3.55;;;;;;;2.08;86.45;100831.06;2072738;28;20894;-67
2022/03/30 01:06:26;;;;;;;12.88;4.00;;;;;;;2.09;87.48;100824.91;2079160;28;42085;-67
2022/03/30 01:07:28;;;;;;;8.50;3.30;;;;;;;2.08;86.81;100827.53;2079643;28;45395;-67
2022/03/30 01:08:29;;;;;;;10.65;3.67;;;;;;;2.12;87.02;100824.06;2079218;28;46051;-67
2022/03/30 01:09:31;;;;;;;11.23;3.45;;;;;;;2.11;86.91;100822.28;2071603;28;43765;-67
2022/03/30 01:10:33;;;;;;;10.55;3.63;;;;;;;2.11;86.54;100822.28;2071124;28;45055;-67
2022/03/30 01:11:35;;;;;;;11.85;4.10;;;;;;;2.13;86.67;100815.25;2071739;28;43330;-67
2022/03/30 01:12:39;;;;;;;11.50;3.50;;;;;;;2.13;87.16;100812.63;2072101;28;20157;-67
2022/03/30 01:13:40;;;;;;;10.20;3.60;;;;;;;2.14;86.69;100813.53;2071632;28;46645;-67
2022/03/30 01:15:07;;;;;;;13.50;4.25;;;;;;;2.15;86.95;100810.88;2079375;28;20093;-66
2022/03/30 01:16:08;;;;;;;7.53;3.38;;;;;;;2.15;86.99;100815.28;2075813;28;44054;-67
2022/03/30 01:17:10;;;;;;;8.63;3.25;;;;;;;2.14;87.43;100814.41;2079300;28;44571;-67
2022/03/30 01:18:12;;;;;;;9.65;3.25;;;;;;;2.14;86.46;100813.53;2079454;28;42895;-66
2022/03/30 01:19:14;;;;;;;8.27;3.08;;;;;;;2.15;87.35;100813.50;2079313;28;46248;-65
2022/03/30 01:20:21;;;;;;;12.27;3.53;;;;;;;2.18;87.55;100808.25;2079430;28;44285;-66
2022/03/30 01:21:23;;;;;;;11.23;3.88;;;;;;;2.17;87.42;100806.50;2079284;28;44328;-67
2022/03/30 01:22:25;;;;;;;9.77;3.30;;;;;;;2.18;86.74;100813.53;2079432;28;44423;-66
2022/03/30 01:23:28;;;;;;;7.78;3.80;;;;;;;2.17;87.16;100803.88;2078972;28;44218;-66
2022/03/30 01:24:29;;;;;;;8.25;4.05;;;;;;;2.18;86.68;100807.38;2079488;28;44785;-66
2022/03/30 01:25:31;;;;;;;13.60;3.20;;;;;;;2.19;87.06;100804.75;2079047;28;43060;-66
2022/03/30 01:26:33;;;;;;;12.73;3.90;;;;;;;2.20;86.68;100809.16;2079771;28;32352;-66
2022/03/30 01:27:35;;;;;;;12.77;3.13;;;;;;;2.19;87.19;100802.13;2079364;28;46094;-66
2022/03/30 01:28:37;;;;;;;9.93;3.60;;;;;;;2.19;86.55;100788.91;2080005;28;33558;-66
2022/03/30 01:32:26;;;;;;;12.38;3.70;;;;;;;2.22;86.06;100794.19;2079143;28;44764;-67
2022/03/30 01:33:28;;;;;;;10.50;3.22;;;;;;;2.21;86.79;100799.50;2070908;28;20046;-66
2022/03/30 01:34:32;;;;;;;8.35;3.40;;;;;;;2.21;86.42;100796.84;2072207;28;20768;-67
2022/03/30 01:35:35;;;;;;;11.07;3.50;;;;;;;2.21;87.17;100799.50;2079405;28;46667;-65
2022/03/30 01:36:37;;;;;;;7.72;3.13;;;;;;;2.20;86.57;100803.88;2080367;28;44551;-66
2022/03/30 01:37:38;;;;;;;10.98;3.53;;;;;;;2.20;86.62;100805.63;2079608;28;41798;-67
2022/03/30 01:38:43;;;;;;;10.43;3.58;;;;;;;2.20;86.90;100805.63;2080068;28;20153;-67
2022/03/30 01:39:44;;;;;;;10.45;3.53;;;;;;;2.18;86.74;100802.97;2078832;28;43110;-66
2022/03/30 01:40:46;;;;;;;13.82;3.80;;;;;;;2.22;86.83;100801.25;2080805;28;20160;-66
2022/03/30 01:41:47;;;;;;;10.18;3.13;;;;;;;2.23;86.89;100797.75;2078889;28;45601;-64
2022/03/30 01:42:49;;;;;;;10.07;3.13;;;;;;;2.24;86.86;100797.78;2071580;28;28660;-67
2022/03/30 01:43:51;;;;;;;12.20;3.53;;;;;;;2.25;86.61;100796.88;2062245;28;45477;-67
2022/03/30 01:44:55;;;;;;;9.32;2.88;;;;;;;2.25;86.85;100793.38;2070679;28;43087;-66
2022/03/30 01:45:57;;;;;;;9.95;3.30;;;;;;;2.25;86.44;100798.66;2078911;28;44241;-67
2022/03/30 01:46:59;;;;;;;20.70;4.68;;;;;;;2.26;87.00;100792.47;2079267;28;45661;-67
2022/03/30 01:48:01;;;;;;;14.85;4.30;;;;;;;2.25;86.47;100794.25;2079245;28;44265;-67
2022/03/30 01:49:02;;;;;;;11.40;2.80;;;;;;;2.26;86.79;100788.09;2078884;28;45142;-67
2022/03/30 01:50:05;;;;;;;8.35;2.80;;;;;;;2.27;86.23;100795.13;2078527;28;42388;-67
2022/03/30 01:51:09;;;;;;;8.70;3.17;;;;;;;2.28;86.93;100790.75;2079166;28;45399;-67
2022/03/30 01:52:12;;;;;;;10.50;4.15;;;;;;;2.28;86.38;100793.41;2079135;28;45102;-67
2022/03/30 01:53:14;;;;;;;13.38;3.90;;;;;;;2.30;86.26;100783.72;2079444;28;45327;-66
2022/03/30 01:54:17;;;;;;;11.55;3.42;;;;;;;2.30;86.80;100786.38;2079542;28;32101;-66
2022/03/30 01:55:20;;;;;;;10.35;3.40;;;;;;;2.31;86.45;100793.41;2078295;28;44219;-67
2022/03/30 01:56:22;;;;;;;10.98;3.30;;;;;;;2.31;86.23;100790.75;2071065;28;20938;-66
2022/03/30 01:57:23;;;;;;;13.93;3.92;;;;;;;2.31;86.46;100792.53;2071360;28;35628;-67
2022/03/30 01:58:25;;;;;;;13.70;4.43;;;;;;;2.35;87.40;100789.94;2079293;28;45824;-67
2022/03/30 01:59:27;;;;;;;12.40;3.88;;;;;;;2.36;86.79;100785.53;2079068;28;45281;-67
2022/03/30 02:00:29;;;;;;;14.07;3.90;;;;;;;2.40;86.91;100789.97;2070663;28;20043;-67
2022/03/30 02:01:30;;;;;;;11.02;3.65;;;;;;;2.40;86.09;100787.31;2070464;28;46115;-67
2022/03/30 02:02:33;;;;;;;13.88;3.38;;;;;;;2.45;86.85;100796.16;2079531;28;20088;-67
2022/03/30 02:03:39;;;;;;;12.57;3.78;;;;;;;2.45;85.72;100783.81;2080040;28;43012;-67
2022/03/30 02:04:41;;;;;;;11.88;3.47;;;;;;;2.46;86.23;100779.44;2078815;28;44081;-66
2022/03/30 02:05:43;;;;;;;15.15;4.53;;;;;;;2.48;85.65;100775.94;2079394;28;37585;-68
2022/03/30 02:06:45;;;;;;;11.52;4.00;;;;;;;2.48;85.68;100775.06;2079526;28;37678;-66
2022/03/30 02:07:49;;;;;;;9.25;3.55;;;;;;;2.50;86.01;100781.22;2080173;28;20822;-68
2022/03/30 02:08:51;;;;;;;12.40;4.38;;;;;;;2.52;85.72;100771.56;2079009;28;44551;-68
2022/03/30 02:09:52;;;;;;;11.07;4.35;;;;;;;2.52;85.59;100766.28;2079128;28;45179;-69
2022/03/30 02:10:54;;;;;;;13.95;4.43;;;;;;;2.54;86.27;100767.16;2077722;28;45830;-67
2022/03/30 02:11:56;;;;;;;13.32;4.80;;;;;;;2.54;85.66;100764.53;2078060;28;38703;-68
2022/03/30 02:12:58;;;;;;;18.58;4.53;;;;;;;2.53;85.50;100762.78;2069354;28;45254;-68
2022/03/30 02:14:00;;;;;;;11.85;4.45;;;;;;;2.54;85.35;100761.88;2070703;28;42967;-67
2022/03/30 02:15:04;;;;;;;12.57;5.18;;;;;;;2.55;86.24;100757.47;2078337;28;46100;-67
2022/03/30 02:16:05;;;;;;;12.38;4.25;;;;;;;2.57;85.79;100759.25;2079349;28;44664;-67
2022/03/30 02:17:07;;;;;;;10.35;3.92;;;;;;;2.56;86.23;100759.25;2078612;28;45204;-66
2022/03/30 02:18:11;;;;;;;12.35;4.53;;;;;;;2.57;86.08;100753.97;2078798;28;45150;-66
2022/03/30 02:19:13;;;;;;;12.18;4.22;;;;;;;2.57;85.75;100751.34;2078118;28;44320;-65
2022/03/30 02:20:15;;;;;;;10.75;4.40;;;;;;;2.58;86.20;100752.22;2079205;28;45458;-67
2022/03/30 02:21:18;;;;;;;15.35;4.88;;;;;;;2.58;85.81;100754.84;2079374;28;20169;-66
2022/03/30 02:22:20;;;;;;;15.80;5.47;;;;;;;2.59;85.69;100746.06;2079897;28;39136;-66
2022/03/30 02:23:22;;;;;;;13.18;4.82;;;;;;;2.60;85.64;100753.09;2078783;28;36884;-67
2022/03/30 02:24:23;;;;;;;11.90;3.70;;;;;;;2.59;86.31;100741.66;2078428;28;47161;-66
2022/03/30 02:25:27;;;;;;;14.10;4.95;;;;;;;2.61;86.18;100742.53;2079275;28;42909;-67
2022/03/30 02:26:30;;;;;;;11.32;5.03;;;;;;;2.60;86.01;100746.09;2079299;28;44958;-66
2022/03/30 02:27:35;;;;;;;14.02;5.07;;;;;;;2.63;86.38;100746.06;2080278;28;20957;-69
2022/03/30 02:28:36;;;;;;;12.63;5.40;;;;;;;2.67;85.92;100741.69;2079203;28;45202;-66
2022/03/30 02:29:38;;;;;;;16.90;5.53;;;;;;;2.68;86.40;100744.34;2079563;28;22704;-68
2022/03/30 02:30:47;;;;;;;13.88;5.38;;;;;;;2.71;85.65;100742.59;2079533;28;42850;-68
2022/03/30 02:31:49;;;;;;;14.13;4.97;;;;;;;2.70;85.55;100740.84;2078609;28;45324;-68
2022/03/30 02:32:50;;;;;;;15.00;5.40;;;;;;;2.70;85.53;100743.50;2079783;28;37242;-68
2022/03/30 02:33:52;;;;;;;16.48;6.25;;;;;;;2.73;86.24;100739.09;2078930;28;44038;-68
2022/03/30 02:34:54;;;;;;;15.60;5.80;;;;;;;2.75;86.14;100733.81;2079115;28;44675;-68
2022/03/30 02:35:56;;;;;;;17.70;5.70;;;;;;;2.74;85.30;100739.97;2078887;28;45441;-68
2022/03/30 02:36:57;;;;;;;14.70;5.78;;;;;;;2.74;86.25;100732.91;2079037;28;43808;-68
2022/03/30 02:37:59;;;;;;;12.98;5.50;;;;;;;2.74;86.08;100732.91;2078741;28;43501;-68
2022/03/30 02:39:02;;;;;;;13.95;5.15;;;;;;;2.75;85.66;100733.81;2080208;28;20108;-68
2022/03/30 02:40:04;;;;;;;15.27;5.88;;;;;;;2.75;85.13;100736.47;2078746;28;43331;-67
2022/03/30 02:41:07;;;;;;;17.48;6.05;;;;;;;2.76;86.21;100732.94;2078523;28;43745;-66
2022/03/30 02:42:09;;;;;;;18.45;6.85;;;;;;;2.79;85.69;100739.13;2078826;28;46613;-68
2022/03/30 02:43:11;;;;;;;14.50;6.63;;;;;;;2.77;85.59;100740.00;2079057;28;44293;-67
2022/03/30 02:44:13;;;;;;;17.58;6.13;;;;;;;2.80;86.20;100734.72;2078662;28;43736;-66
2022/03/30 02:45:15;;;;;;;16.98;6.43;;;;;;;2.80;86.25;100735.63;2079350;28;46495;-66
2022/03/30 02:46:17;;;;;;;13.52;5.90;;;;;;;2.78;85.38;100731.19;2079110;28;42846;-67
2022/03/30 02:48:17;;;;;;;15.25;6.55;;;;;;;2.80;85.49;100732.06;2078719;28;44334;-67
2022/03/30 02:48:40;;;;;;;13.23;4.70;;;;;;;2.78;85.50;100731.19;2078548;28;45634;-67
2022/03/30 02:49:42;;;;;;;12.40;6.05;;;;;;;2.78;85.55;100731.19;2079239;28;36536;-67
2022/03/30 02:50:51;;;;;;;11.90;5.43;;;;;;;2.79;85.61;100727.69;2077618;28;44056;-67
2022/03/30 02:51:53;;;;;;;14.85;5.72;;;;;;;2.79;85.51;100733.84;2070435;28;44883;-67
2022/03/30 02:52:55;;;;;;;15.50;6.03;;;;;;;2.79;85.91;100725.03;2071565;28;33886;-67
2022/03/30 02:53:59;;;;;;;16.52;6.53;;;;;;;2.80;86.24;100729.41;2080363;28;20042;-67
2022/03/30 02:55:03;;;;;;;14.13;6.22;;;;;;;2.81;85.88;100733.84;2080178;28;20082;-67
2022/03/30 02:56:05;;;;;;;13.23;6.63;;;;;;;2.82;85.91;100722.41;2078693;28;47612;-67
2022/03/30 02:57:07;;;;;;;16.55;7.00;;;;;;;2.83;85.98;100725.03;2079236;28;41990;-66
2022/03/30 02:58:10;;;;;;;18.10;7.25;;;;;;;2.84;86.13;100725.94;2079009;28;35642;-68
2022/03/30 02:59:12;;;;;;;18.80;6.63;;;;;;;2.82;85.70;100718.00;2078387;28;45782;-67
2022/03/30 03:00:15;;;;;;;17.88;6.72;;;;;;;2.84;85.71;100718.00;2078990;28;45143;-66
2022/03/30 03:01:17;;;;;;;13.23;5.80;;;;;;;2.83;85.51;100713.59;2077999;28;46616;-66
2022/03/30 03:02:18;;;;;;;13.27;6.15;;;;;;;2.86;85.66;100716.25;2078930;28;43290;-67
2022/03/30 03:03:21;;;;;;;15.35;6.20;;;;;;;2.85;85.24;100715.38;2078496;28;45610;-66
2022/03/30 03:04:23;;;;;;;16.30;5.90;;;;;;;2.83;85.40;100711.81;2078737;28;44888;-67
2022/03/30 03:05:27;;;;;;;14.40;6.68;;;;;;;2.85;85.88;100712.72;2079437;28;45252;-67
2022/03/30 03:06:31;;;;;;;17.63;6.20;;;;;;;2.86;85.68;100718.91;2079093;28;45250;-69
2022/03/30 03:07:33;;;;;;;14.80;6.00;;;;;;;2.85;85.78;100711.81;2078768;28;40025;-69
2022/03/30 03:08:35;;;;;;;15.68;6.15;;;;;;;2.89;85.98;100707.44;2079214;28;44112;-67
2022/03/30 03:09:38;;;;;;;11.88;5.93;;;;;;;2.89;85.51;100702.16;2078752;28;45147;-67
2022/03/30 03:10:47;;;;;;;14.02;6.50;;;;;;;2.90;85.76;100704.81;2079631;28;20040;-68
2022/03/30 03:11:49;;;;;;;14.75;6.63;;;;;;;2.91;85.56;100705.69;2079241;28;31720;-68
2022/03/30 03:12:50;;;;;;;14.93;6.57;;;;;;;2.90;85.51;100710.09;2079126;28;43687;-68
2022/03/30 03:13:52;;;;;;;19.02;6.65;;;;;;;2.92;85.84;100702.16;2078495;28;45280;-68
2022/03/30 03:14:54;;;;;;;13.43;5.65;;;;;;;2.92;85.85;100708.34;2078710;28;38062;-68
2022/03/30 03:15:55;;;;;;;16.35;6.40;;;;;;;2.92;85.67;100702.16;2078825;28;44671;-67
2022/03/30 03:16:57;;;;;;;18.83;6.80;;;;;;;2.92;85.78;100702.16;2078257;28;45703;-68
2022/03/30 03:18:01;;;;;;;18.63;7.00;;;;;;;2.92;86.08;100703.03;2078781;28;44321;-67
2022/03/30 03:19:03;;;;;;;20.50;7.07;;;;;;;2.93;86.06;100702.19;2078674;28;45331;-68
2022/03/30 03:20:06;;;;;;;16.15;7.00;;;;;;;2.95;85.50;100697.78;2078512;28;45349;-68
2022/03/30 03:21:08;;;;;;;17.73;6.30;;;;;;;2.94;85.94;100700.41;2078655;28;45795;-67
2022/03/30 03:22:10;;;;;;;15.00;6.20;;;;;;;2.95;85.64;100703.06;2078413;28;45421;-68
2022/03/30 03:23:13;;;;;;;15.45;6.03;;;;;;;2.94;85.61;100701.28;2078925;28;43391;-68
2022/03/30 03:24:17;;;;;;;19.63;7.57;;;;;;;2.96;86.26;100699.56;2070477;28;20085;-68
2022/03/30 03:25:18;;;;;;;15.65;6.93;;;;;;;2.96;85.85;100694.28;2070092;28;46168;-67
2022/03/30 03:26:20;;;;;;;13.95;5.93;;;;;;;2.97;86.07;100703.97;2078834;28;42129;-68
2022/03/30 03:27:22;;;;;;;15.80;6.68;;;;;;;2.97;85.91;100701.31;2079054;28;42949;-67
2022/03/30 03:28:23;;;;;;;20.30;7.65;;;;;;;2.98;85.82;100702.19;2078614;28;44714;-67
2022/03/30 03:29:26;;;;;;;14.82;6.55;;;;;;;2.99;85.89;100701.31;2079305;28;42133;-68
2022/03/30 03:30:28;;;;;;;19.52;7.55;;;;;;;2.99;86.52;100704.84;2078824;28;45269;-67
2022/03/30 03:31:30;;;;;;;13.05;5.75;;;;;;;3.00;85.91;100698.69;2078853;28;45865;-67
2022/03/30 03:32:32;;;;;;;15.98;7.63;;;;;;;3.01;85.71;100696.91;2078841;28;44332;-68
2022/03/30 03:33:33;;;;;;;15.20;8.00;;;;;;;3.01;86.26;100697.78;2078800;28;45699;-68
2022/03/30 03:34:35;;;;;;;18.45;8.00;;;;;;;3.02;86.09;100696.94;2069997;28;44190;-67
2022/03/30 03:35:37;;;;;;;17.33;7.57;;;;;;;3.02;86.04;100694.28;2070462;28;44032;-67
2022/03/30 03:36:39;;;;;;;17.40;7.55;;;;;;;3.03;86.15;100701.34;2078501;28;44661;-68
2022/03/30 03:37:41;;;;;;;20.98;8.10;;;;;;;3.03;86.38;100701.34;2078456;28;44000;-68
2022/03/30 03:38:43;;;;;;;19.15;7.85;;;;;;;3.05;86.14;100696.94;2069718;28;46333;-68
2022/03/30 03:39:45;;;;;;;20.55;8.00;;;;;;;3.06;86.28;100696.06;2070689;28;42109;-67
2022/03/30 03:40:47;;;;;;;21.17;8.52;;;;;;;3.07;85.46;100696.97;2069525;28;43897;-67
2022/03/30 03:41:49;;;;;;;19.83;7.72;;;;;;;3.08;85.82;100697.84;2070711;28;29765;-66
2022/03/30 03:42:50;;;;;;;17.92;8.55;;;;;;;3.08;86.06;100704.00;2079634;28;20046;-67
2022/03/30 03:43:54;;;;;;;17.05;8.40;;;;;;;3.10;86.17;100706.66;2079755;28;20068;-67
2022/03/30 03:44:56;;;;;;;16.52;7.85;;;;;;;3.11;85.72;100703.16;2078800;28;44458;-67
2022/03/30 03:45:59;;;;;;;20.23;8.57;;;;;;;3.12;86.08;100707.53;2079084;28;45797;-67
2022/03/30 03:47:01;;;;;;;14.50;7.22;;;;;;;3.12;85.91;100699.59;2078429;28;44995;-67
2022/03/30 03:48:04;;;;;;;22.05;9.18;;;;;;;3.12;86.49;100703.13;2079046;28;45294;-67
2022/03/30 03:49:05;;;;;;;18.20;8.40;;;;;;;3.12;85.90;100700.47;2078845;28;45306;-67
2022/03/30 03:50:09;;;;;;;19.95;7.53;;;;;;;3.14;85.98;100708.44;2078714;28;43120;-67
2022/03/30 03:51:11;;;;;;;20.58;8.43;;;;;;;3.14;86.35;100703.13;2077960;28;43858;-66
2022/03/30 03:52:13;;;;;;;16.60;7.97;;;;;;;3.15;86.53;100704.91;2078706;28;46220;-67
2022/03/30 03:53:14;;;;;;;18.52;8.60;;;;;;;3.15;86.29;100699.63;2078782;28;39479;-66
2022/03/30 03:54:16;;;;;;;18.85;9.30;;;;;;;3.16;86.23;100711.94;2078754;28;45231;-66
2022/03/30 03:55:18;;;;;;;17.58;8.55;;;;;;;3.18;86.56;100699.66;2078365;28;46033;-66
2022/03/30 03:56:20;;;;;;;17.38;8.57;;;;;;;3.21;86.44;100704.91;2078633;28;43479;-66
2022/03/30 03:57:22;;;;;;;16.63;8.55;;;;;;;3.20;86.63;100708.47;2078722;28;45710;-67
2022/03/30 03:58:26;;;;;;;17.95;8.65;;;;;;;3.19;86.42;100704.91;2079427;28;44756;-67
2022/03/30 03:59:30;;;;;;;15.40;8.52;;;;;;;3.18;86.59;100707.59;2079862;28;44299;-67
2022/03/30 04:00:35;;;;;;;15.40;7.68;;;;;;;3.18;86.75;100699.66;2080586;28;20037;-67
2022/03/30 04:01:37;;;;;;;20.00;9.15;;;;;;;3.18;87.16;100699.66;2079388;28;37794;-67
2022/03/30 04:02:41;;;;;;;19.88;8.38;;;;;;;3.17;87.27;100703.16;2080044;28;46758;-67
2022/03/30 04:03:42;;;;;;;14.23;7.70;;;;;;;3.17;86.61;100700.50;2070998;28;44862;-65
2022/03/30 04:04:44;;;;;;;17.60;8.40;;;;;;;3.19;87.25;100699.63;2071721;28;45785;-66
2022/03/30 04:05:46;;;;;;;14.68;8.10;;;;;;;3.20;87.53;100696.13;2080034;28;44627;-66
2022/03/30 04:06:48;;;;;;;23.38;8.43;;;;;;;3.20;87.81;100704.03;2080406;28;43723;-67
2022/03/30 04:07:51;;;;;;;16.70;8.73;;;;;;;3.19;87.31;100696.09;2079789;28;46190;-66
2022/03/30 04:08:54;;;;;;;18.15;8.23;;;;;;;3.18;87.31;100687.28;2080031;28;42950;-67
2022/03/30 04:09:56;;;;;;;16.85;7.45;;;;;;;3.19;87.38;100696.09;2080162;28;42081;-67
2022/03/30 04:10:58;;;;;;;20.52;8.00;;;;;;;3.20;87.89;100697.88;2079720;28;43459;-66
2022/03/30 04:11:59;;;;;;;18.35;8.07;;;;;;;3.19;87.55;100696.09;2079907;28;45370;-66
2022/03/30 04:13:02;;;;;;;16.05;7.70;;;;;;;3.19;87.54;100696.09;2080384;28;36225;-67
2022/03/30 04:14:04;;;;;;;16.10;7.75;;;;;;;3.18;87.40;100697.88;2080070;28;46011;-67
2022/03/30 04:15:08;;;;;;;17.63;8.63;;;;;;;3.18;86.96;100694.34;2079068;28;45253;-67
2022/03/30 04:16:10;;;;;;;19.60;8.80;;;;;;;3.19;88.27;100696.97;2079147;28;46488;-67
2022/03/30 04:17:12;;;;;;;23.20;9.20;;;;;;;3.19;87.95;100694.34;2079432;28;43209;-66
2022/03/30 04:18:13;;;;;;;25.75;9.40;;;;;;;3.19;88.50;100685.53;2079211;28;44606;-66
2022/03/30 04:19:15;;;;;;;24.75;9.68;;;;;;;3.20;88.42;100698.75;2080468;28;44683;-66
2022/03/30 04:20:18;;;;;;;25.88;10.23;;;;;;;3.21;88.25;100694.34;2079771;28;44135;-66
2022/03/30 04:21:20;;;;;;;24.08;10.23;;;;;;;3.19;88.24;100696.97;2080372;28;45143;-66
2022/03/30 04:22:24;;;;;;;16.70;7.90;;;;;;;3.20;88.67;100690.81;2079865;28;40776;-66
2022/03/30 04:23:26;;;;;;;20.50;10.00;;;;;;;3.20;88.07;100688.19;2079593;28;45048;-66
2022/03/30 04:24:28;;;;;;;25.27;10.80;;;;;;;3.22;88.78;100682.91;2079851;28;45852;-66
2022/03/30 04:25:30;;;;;;;26.08;12.25;;;;;;;3.20;89.04;100687.31;2079386;28;44299;-66
2022/03/30 04:26:31;;;;;;;29.83;12.57;;;;;;;3.20;89.12;100692.59;2078644;28;45992;-66
2022/03/30 04:27:33;;;;;;;28.52;11.73;;;;;;;3.20;88.65;100687.31;2079952;28;44783;-67
2022/03/30 04:28:40;;;;;;;26.10;13.65;;;;;;;3.20;89.45;100680.25;2079912;28;36407;-67
2022/03/30 04:29:42;;;;;;;27.10;14.07;;;;;;;3.21;89.38;100689.06;2079933;28;44593;-67
2022/03/30 04:30:44;;;;;;;24.02;13.27;;;;;;;3.20;89.46;100674.94;2079239;28;43933;-67
2022/03/30 04:31:46;;;;;;;31.20;14.05;;;;;;;3.20;89.63;100676.72;2079111;28;45065;-66
2022/03/30 04:32:48;;;;;;;26.67;13.73;;;;;;;3.21;89.18;100678.47;2080296;28;31575;-66
2022/03/30 04:33:49;;;;;;;31.15;12.88;;;;;;;3.20;89.13;100679.38;2079964;28;44269;-65
2022/03/30 04:34:51;;;;;;;25.45;14.18;;;;;;;3.20;89.38;100674.06;2078925;28;44972;-67
2022/03/30 04:35:53;;;;;;;31.90;14.85;;;;;;;3.20;89.86;100680.25;2079751;28;43369;-66
2022/03/30 04:36:56;;;;;;;28.08;14.70;;;;;;;3.20;90.15;100674.06;2079188;28;45383;-66
2022/03/30 04:37:57;;;;;;;30.40;15.13;;;;;;;3.21;90.12;100673.19;2079749;28;44818;-65
2022/03/30 04:39:00;;;;;;;31.75;13.88;;;;;;;3.21;89.89;100675.81;2078763;28;43860;-66
2022/03/30 04:40:02;;;;;;;29.65;16.27;;;;;;;3.21;89.94;100678.47;2080109;28;39227;-66
2022/03/30 04:41:04;;;;;;;25.45;13.88;;;;;;;3.21;89.84;100678.47;2079568;28;44389;-65
2022/03/30 04:42:06;;;;;;;33.78;15.95;;;;;;;3.22;90.64;100675.84;2080070;28;44091;-64
2022/03/30 04:43:08;;;;;;;32.33;14.45;;;;;;;3.22;90.53;100674.97;2079977;28;46087;-65
2022/03/30 04:44:12;;;;;;;31.02;16.15;;;;;;;3.21;90.51;100673.19;2070928;28;44462;-65
2022/03/30 04:45:13;;;;;;;30.77;15.57;;;;;;;3.22;90.35;100680.25;2070917;28;46751;-65
2022/03/30 04:46:15;;;;;;;36.28;16.27;;;;;;;3.22;90.36;100680.25;2080139;28;44722;-64
2022/03/30 04:47:17;;;;;;;32.63;15.23;;;;;;;3.21;90.51;100678.47;2079271;28;45560;-64
2022/03/30 04:48:19;;;;;;;30.38;15.93;;;;;;;3.22;90.86;100677.59;2079937;28;44631;-64
2022/03/30 04:49:21;;;;;;;31.40;16.13;;;;;;;3.22;91.18;100680.25;2079776;28;28899;-64
2022/03/30 04:50:23;;;;;;;30.90;15.38;;;;;;;3.22;91.08;100674.97;2080501;28;20907;-64
2022/03/30 04:51:29;;;;;;;31.85;15.68;;;;;;;3.21;91.11;100667.88;2080226;28;20042;-67
2022/03/30 04:52:32;;;;;;;35.92;16.27;;;;;;;3.23;91.55;100676.72;2079766;28;45693;-66
2022/03/30 04:53:34;;;;;;;36.08;16.85;;;;;;;3.21;91.44;100670.53;2070573;28;37753;-66